createdAt,value
2022-10-18T00:02:42.660Z,65.01
2022-10-18T00:05:46.603Z,65.11
2022-10-18T00:08:49.078Z,65.05
2022-10-18T00:11:52.060Z,65.04
2022-10-18T00:14:54.530Z,65.12
2022-10-18T00:17:57.499Z,65.05
2022-10-18T00:21:02.259Z,65.14
2022-10-18T00:24:05.771Z,65.06
2022-10-18T00:27:08.406Z,65.06
2022-10-18T00:30:11.764Z,65.20
2022-10-18T00:33:14.163Z,65.22
2022-10-18T01:25:50.812Z,67.31
2022-10-18T01:29:21.797Z,67.45
2022-10-18T01:32:31.274Z,67.48
2022-10-18T01:35:40.790Z,67.48
2022-10-18T01:38:45.277Z,67.56
2022-10-18T01:41:51.039Z,67.59
2022-10-18T01:44:54.799Z,67.52
2022-10-18T01:47:59.259Z,67.50
2022-10-18T01:51:03.810Z,67.62
2022-10-18T01:54:06.823Z,67.71
2022-10-18T01:57:35.700Z,67.76
2022-10-18T02:00:42.347Z,67.77
2022-10-18T02:03:48.403Z,67.78
2022-10-18T02:06:58.703Z,67.97
2022-10-18T02:10:06.698Z,68.15
2022-10-18T02:13:13.421Z,68.21
2022-10-18T02:16:39.343Z,68.33
2022-10-18T02:19:50.191Z,68.40
2022-10-18T02:22:55.771Z,68.32
2022-10-18T02:25:58.697Z,68.55
2022-10-18T02:29:01.909Z,68.58
2022-10-18T02:32:10.758Z,68.78
2022-10-18T02:35:34.562Z,68.67
2022-10-18T02:38:38.441Z,68.62
2022-10-18T02:41:41.764Z,68.85
2022-10-18T02:44:44.459Z,69.08
2022-10-18T02:47:47.329Z,69.20
2022-10-18T02:50:49.948Z,69.26
2022-10-18T02:53:52.683Z,69.35
2022-10-18T02:56:55.349Z,69.48
2022-10-18T02:59:58.102Z,69.52
2022-10-18T03:03:01.107Z,69.63
2022-10-18T03:06:04.098Z,69.66
2022-10-18T03:09:07.377Z,69.69
2022-10-18T03:12:10.129Z,69.73
2022-10-18T03:15:12.732Z,69.99
2022-10-18T03:18:15.759Z,70.04
2022-10-18T03:21:18.454Z,70.10
2022-10-18T03:24:21.259Z,69.98
2022-10-18T03:27:23.901Z,69.87
2022-10-18T03:30:26.650Z,69.91
2022-10-18T03:33:29.901Z,70.04
2022-10-18T03:36:33.978Z,70.06
2022-10-18T03:39:36.513Z,69.82
2022-10-18T03:42:39.348Z,69.64
2022-10-18T03:45:43.357Z,69.60
2022-10-18T03:48:46.146Z,69.79
2022-10-18T03:51:49.018Z,69.87
2022-10-18T03:54:51.796Z,69.77
2022-10-18T03:57:54.503Z,69.92
2022-10-18T04:00:57.259Z,69.99
2022-10-18T04:04:00.180Z,70.04
2022-10-18T04:07:02.607Z,70.02
2022-10-18T04:10:06.193Z,70.13
2022-10-18T04:13:08.896Z,70.12
2022-10-18T04:16:11.831Z,70.07
2022-10-18T04:19:14.391Z,70.20
2022-10-18T04:22:17.445Z,70.23
2022-10-18T04:25:19.940Z,70.35
2022-10-18T04:28:22.800Z,70.36
2022-10-18T04:31:25.565Z,70.35
2022-10-18T04:34:28.483Z,70.49
2022-10-18T04:37:31.408Z,70.56
2022-10-18T04:40:34.909Z,70.58
2022-10-18T04:43:37.594Z,70.67
2022-10-18T04:46:40.450Z,70.72
2022-10-18T04:49:42.844Z,70.77
2022-10-18T04:52:46.021Z,70.73
2022-10-18T04:55:49.919Z,70.82
2022-10-18T04:58:52.863Z,70.91
2022-10-18T05:01:55.422Z,71.02
2022-10-18T05:04:58.470Z,71.16
2022-10-18T05:08:01.017Z,71.21
2022-10-18T05:11:04.658Z,71.17
2022-10-18T05:14:10.181Z,71.13
2022-10-18T05:17:13.142Z,71.11
2022-10-18T05:20:15.905Z,70.96
2022-10-18T05:23:19.100Z,70.93
2022-10-18T05:26:21.979Z,70.90
2022-10-18T05:29:25.165Z,70.98
2022-10-18T05:32:27.715Z,70.84
2022-10-18T05:35:30.627Z,70.91
2022-10-18T05:38:33.174Z,70.96
2022-10-18T05:41:36.472Z,70.96
2022-10-18T05:44:38.786Z,70.98
2022-10-18T05:47:41.760Z,71.41
2022-10-18T05:50:46.169Z,71.45
2022-10-18T05:53:49.120Z,71.61
2022-10-18T05:56:52.300Z,70.92
2022-10-18T05:59:55.207Z,70.45
2022-10-18T06:03:00.185Z,70.23
2022-10-18T06:06:06.817Z,70.25
2022-10-18T06:09:09.591Z,70.13
2022-10-18T06:12:12.497Z,69.95
2022-10-18T06:15:14.951Z,69.12
2022-10-18T06:18:17.904Z,69.49
2022-10-18T06:21:21.312Z,69.58
2022-10-18T06:24:24.279Z,69.06
2022-10-18T06:27:26.715Z,69.03
2022-10-18T06:30:29.576Z,68.75
2022-10-18T06:33:32.765Z,68.86
2022-10-18T06:36:35.814Z,68.63
2022-10-18T06:39:38.337Z,68.12
2022-10-18T06:42:41.434Z,68.10
2022-10-18T06:45:43.788Z,67.74
2022-10-18T06:48:46.679Z,66.69
2022-10-18T06:51:50.071Z,66.79
2022-10-18T06:54:54.013Z,66.54
2022-10-18T06:57:56.678Z,66.13
2022-10-18T07:00:59.722Z,65.81
2022-10-18T07:04:02.200Z,64.80
2022-10-18T07:07:05.148Z,64.64
2022-10-18T07:10:11.192Z,64.10
2022-10-18T07:13:32.780Z,63.49
2022-10-18T07:16:36.156Z,62.36
2022-10-18T07:19:39.193Z,60.87
2022-10-18T07:22:41.678Z,59.36
2022-10-18T07:25:44.850Z,57.65
2022-10-18T07:28:50.702Z,56.25
2022-10-18T07:31:53.685Z,54.89
2022-10-18T07:34:56.091Z,52.32
2022-10-18T07:37:59.282Z,51.91
2022-10-18T07:41:03.803Z,50.05
2022-10-18T07:44:06.805Z,46.57
2022-10-18T07:47:09.261Z,40.69
2022-10-18T07:50:12.189Z,32.97
2022-10-18T07:53:15.115Z,28.55
2022-10-18T07:56:21.024Z,26.73
2022-10-18T07:59:23.972Z,25.17
2022-10-18T08:02:26.888Z,23.40
2022-10-18T08:05:29.691Z,20.70
2022-10-18T08:08:32.862Z,17.39
2022-10-18T08:11:35.584Z,16.02
2022-10-18T08:14:38.201Z,15.87
2022-10-18T08:17:41.048Z,16.17
2022-10-18T08:20:46.618Z,16.05
2022-10-18T08:23:50.288Z,14.58
2022-10-18T08:26:52.976Z,13.73
2022-10-18T08:29:55.701Z,11.89
2022-10-18T08:32:58.367Z,10.19
2022-10-18T08:36:03.402Z,8.96
2022-10-18T08:39:06.075Z,7.77
2022-10-18T08:42:14.132Z,7.13
2022-10-18T08:45:30.009Z,6.74
2022-10-18T08:48:39.152Z,6.43
2022-10-18T08:51:50.898Z,6.34
2022-10-18T08:55:10.946Z,6.22
2022-10-18T08:58:22.784Z,6.04
2022-10-18T09:01:53.655Z,5.96
2022-10-18T09:05:05.229Z,5.73
2022-10-18T09:08:32.072Z,6.13
2022-10-18T09:11:43.597Z,6.99
2022-10-18T09:15:13.306Z,8.11
2022-10-18T09:18:19.083Z,10.60
2022-10-18T09:21:42.430Z,13.76
2022-10-18T09:24:48.357Z,14.83
2022-10-18T09:27:56.955Z,16.66
2022-10-18T09:31:24.567Z,17.38
2022-10-18T09:34:34.748Z,18.11
2022-10-18T09:37:37.995Z,18.10
2022-10-18T09:41:19.024Z,18.46
2022-10-18T09:44:33.354Z,19.41
2022-10-18T09:47:41.505Z,20.04
2022-10-18T09:50:50.495Z,20.21
2022-10-18T09:53:59.031Z,19.97
2022-10-18T09:57:34.568Z,19.88
2022-10-18T10:00:48.162Z,20.43
2022-10-18T10:03:52.007Z,20.57
2022-10-18T10:06:56.629Z,20.86
2022-10-18T10:10:19.944Z,21.72
2022-10-18T10:13:26.313Z,22.90
2022-10-18T10:16:29.329Z,22.87
2022-10-18T10:19:39.959Z,22.43
2022-10-18T10:22:46.636Z,22.91
2022-10-18T10:25:55.843Z,23.48
2022-10-18T10:28:59.503Z,23.90
2022-10-18T10:32:03.978Z,24.79
2022-10-18T10:35:54.025Z,24.14
2022-10-18T10:39:21.491Z,23.42
2022-10-18T10:42:24.553Z,23.79
2022-10-18T10:45:35.305Z,25.12
2022-10-18T10:48:48.396Z,23.85
2022-10-18T10:52:08.336Z,22.94
2022-10-18T10:55:35.429Z,22.83
2022-10-18T10:58:40.628Z,23.04
2022-10-18T11:01:43.876Z,22.58
2022-10-18T11:04:50.272Z,22.14
2022-10-18T11:07:58.201Z,21.91
2022-10-18T11:11:00.600Z,22.12
2022-10-18T11:14:26.289Z,22.36
2022-10-18T11:17:41.621Z,23.18
2022-10-18T11:20:56.315Z,23.66
2022-10-18T11:24:02.042Z,23.51
2022-10-18T11:27:25.160Z,23.21
2022-10-18T11:30:49.676Z,23.84
2022-10-18T11:34:20.594Z,24.41
2022-10-18T11:37:38.756Z,25.44
2022-10-18T11:40:50.257Z,25.02
2022-10-18T11:44:03.649Z,24.72
2022-10-18T11:47:13.241Z,24.02
2022-10-18T11:50:28.113Z,24.00
2022-10-18T11:53:37.289Z,24.87
2022-10-18T11:56:58.251Z,24.57
2022-10-18T12:00:20.749Z,25.03
2022-10-18T12:03:45.345Z,23.74
2022-10-18T12:06:52.239Z,24.29
2022-10-18T12:09:56.585Z,24.95
2022-10-18T12:13:03.907Z,24.16
2022-10-18T12:16:09.357Z,24.43
2022-10-18T12:19:23.378Z,25.61
2022-10-18T12:22:38.087Z,23.82
2022-10-18T12:25:50.991Z,23.72
2022-10-18T12:29:08.721Z,23.55
2022-10-18T12:32:14.796Z,23.55
2022-10-18T12:35:19.695Z,23.25
2022-10-18T12:38:35.545Z,22.88
2022-10-18T12:41:38.683Z,22.93
2022-10-18T12:44:42.291Z,24.25
2022-10-18T12:47:45.085Z,25.03
2022-10-18T12:50:58.976Z,24.97
2022-10-18T12:54:04.207Z,24.48
2022-10-18T12:57:18.201Z,24.60
2022-10-18T13:00:29.639Z,24.83
2022-10-18T13:03:54.212Z,24.35
2022-10-18T13:06:59.920Z,23.93
2022-10-18T13:10:15.007Z,23.37
2022-10-18T13:13:39.573Z,23.47
2022-10-18T13:16:49.013Z,23.76
2022-10-18T13:20:28.100Z,24.06
2022-10-18T13:23:43.249Z,24.67
2022-10-18T13:27:31.337Z,24.59
2022-10-18T13:30:46.310Z,25.37
2022-10-18T13:33:49.601Z,25.52
2022-10-18T13:37:20.490Z,26.27
2022-10-18T13:40:25.611Z,25.43
2022-10-18T13:43:55.052Z,25.64
2022-10-18T13:46:57.819Z,26.88
2022-10-18T13:50:11.496Z,27.13
2022-10-18T13:53:30.093Z,27.79
2022-10-18T13:56:52.966Z,27.67
2022-10-18T14:00:16.820Z,28.27
2022-10-18T14:03:58.923Z,28.92
2022-10-18T14:07:06.019Z,29.33
2022-10-18T14:10:43.815Z,29.08
2022-10-18T14:14:00.181Z,29.34
2022-10-18T14:17:21.655Z,30.02
2022-10-18T14:20:49.445Z,30.22
2022-10-18T14:24:00.813Z,30.22
2022-10-18T14:27:16.699Z,30.48
2022-10-18T14:30:25.588Z,31.00
2022-10-18T14:33:58.086Z,31.39
2022-10-18T14:37:01.806Z,31.69
2022-10-18T14:40:04.748Z,32.03
2022-10-18T14:43:14.088Z,32.40
2022-10-18T14:46:30.032Z,32.43
2022-10-18T14:49:42.361Z,32.85
2022-10-18T14:52:45.443Z,32.83
2022-10-18T14:55:56.285Z,32.78
2022-10-18T14:59:03.575Z,32.89
2022-10-18T15:02:24.557Z,32.46
2022-10-18T15:05:27.350Z,32.97
2022-10-18T15:08:44.020Z,33.12
2022-10-18T15:11:47.179Z,33.66
2022-10-18T15:14:51.185Z,33.89
2022-10-18T15:17:54.910Z,33.63
2022-10-18T15:21:22.253Z,33.81
2022-10-18T15:24:27.527Z,33.81
2022-10-18T15:27:35.241Z,34.06
2022-10-18T15:30:42.729Z,34.59
2022-10-18T15:33:45.772Z,34.56
2022-10-18T15:36:49.813Z,34.43
2022-10-18T15:40:29.027Z,34.76
2022-10-18T15:43:34.427Z,34.73
2022-10-18T15:46:39.515Z,35.19
2022-10-18T15:49:44.944Z,35.59
2022-10-18T15:52:48.010Z,35.46
2022-10-18T15:55:52.635Z,35.77
2022-10-18T15:58:57.316Z,36.03
2022-10-18T16:01:59.859Z,36.20
2022-10-18T16:05:03.064Z,36.80
2022-10-18T16:08:05.897Z,36.83
2022-10-18T16:11:21.216Z,36.95
2022-10-18T16:14:24.149Z,37.35
2022-10-18T16:17:27.404Z,37.63
2022-10-18T16:20:30.072Z,37.60
2022-10-18T16:23:33.287Z,37.73
2022-10-18T16:26:36.466Z,38.10
2022-10-18T16:29:41.240Z,38.33
2022-10-18T16:32:43.704Z,38.67
2022-10-18T16:35:46.529Z,38.92
2022-10-18T16:38:49.560Z,39.17
2022-10-18T16:41:52.684Z,39.71
2022-10-18T16:44:55.133Z,40.24
2022-10-18T16:47:58.020Z,40.55
2022-10-18T16:51:01.430Z,40.83
2022-10-18T16:54:05.452Z,41.25
2022-10-18T16:57:09.839Z,41.82
2022-10-18T17:00:19.095Z,42.36
2022-10-18T17:03:21.882Z,42.87
2022-10-18T17:06:27.869Z,43.32
2022-10-18T17:09:30.735Z,43.61
2022-10-18T17:12:34.042Z,43.85
2022-10-18T17:15:36.545Z,44.17
2022-10-18T17:18:39.425Z,44.46
2022-10-18T17:21:41.883Z,44.75
2022-10-18T17:24:44.950Z,45.10
2022-10-18T17:27:47.505Z,45.52
2022-10-18T17:30:50.315Z,45.67
2022-10-18T17:33:54.738Z,45.70
2022-10-18T17:36:57.781Z,45.51
2022-10-18T17:40:00.404Z,45.88
2022-10-18T17:43:03.291Z,46.16
2022-10-18T17:46:06.102Z,46.41
2022-10-18T17:49:09.046Z,46.51
2022-10-18T17:52:11.978Z,46.41
2022-10-18T17:55:15.577Z,46.62
2022-10-18T17:58:18.228Z,47.70
2022-10-18T18:01:23.213Z,48.27
2022-10-18T18:04:26.033Z,48.71
2022-10-18T18:07:28.676Z,49.01
2022-10-18T18:10:35.219Z,49.03
2022-10-18T18:13:38.039Z,48.99
2022-10-18T18:16:42.960Z,49.09
2022-10-18T18:19:45.642Z,49.23
2022-10-18T18:22:48.451Z,49.30
2022-10-18T18:25:58.177Z,49.35
2022-10-18T18:32:09.182Z,49.48
2022-10-18T18:35:11.878Z,48.54
2022-10-18T18:38:14.568Z,49.17
2022-10-18T18:41:25.212Z,49.85
2022-10-18T18:44:28.355Z,50.20
2022-10-18T18:47:35.378Z,50.43
2022-10-18T18:50:37.963Z,50.68
2022-10-18T18:53:41.828Z,50.81
2022-10-18T18:56:44.573Z,51.16
2022-10-18T18:59:47.289Z,51.55
2022-10-18T19:02:49.977Z,51.92
2022-10-18T19:06:02.747Z,52.21
2022-10-18T19:09:19.669Z,52.48
2022-10-18T19:12:22.534Z,52.82
2022-10-18T19:15:25.425Z,53.22
2022-10-18T19:18:28.333Z,53.50
2022-10-18T19:21:33.719Z,53.69
2022-10-18T19:24:37.320Z,54.02
2022-10-18T19:27:40.070Z,54.27
2022-10-18T19:30:46.671Z,54.49
2022-10-18T19:33:59.354Z,54.70
2022-10-18T19:37:03.512Z,54.72
2022-10-18T19:40:06.793Z,54.78
2022-10-18T19:43:09.728Z,55.09
2022-10-18T19:46:12.464Z,55.21
2022-10-18T19:49:15.787Z,55.44
2022-10-18T19:52:18.625Z,55.52
2022-10-18T19:55:21.405Z,55.74
2022-10-18T19:58:24.051Z,55.74
2022-10-18T20:01:28.872Z,55.77
2022-10-18T20:04:34.637Z,55.58
2022-10-18T20:07:37.106Z,55.49
2022-10-18T20:10:40.199Z,55.67
2022-10-18T20:13:43.284Z,55.72
2022-10-18T20:16:46.264Z,55.66
2022-10-18T20:19:48.809Z,55.85
2022-10-18T20:22:51.684Z,56.08
2022-10-18T20:25:59.386Z,56.23
2022-10-18T20:29:02.560Z,56.20
2022-10-18T20:32:05.295Z,56.28
2022-10-18T20:35:08.354Z,56.34
2022-10-18T20:38:10.719Z,56.51
2022-10-18T20:41:19.931Z,56.59
2022-10-18T20:44:22.744Z,56.82
2022-10-18T20:47:25.475Z,57.16
2022-10-18T20:50:27.808Z,57.24
2022-10-18T20:53:33.069Z,57.29
2022-10-18T20:56:38.888Z,57.47
2022-10-18T20:59:41.904Z,57.67
2022-10-18T21:02:44.368Z,57.87
2022-10-18T21:05:47.252Z,58.00
2022-10-18T21:08:57.643Z,58.09
2022-10-18T21:12:00.549Z,58.18
2022-10-18T21:15:03.344Z,58.36
2022-10-18T21:18:06.106Z,58.47
2022-10-18T21:21:11.000Z,58.45
2022-10-18T21:24:14.069Z,58.47
2022-10-18T21:27:16.501Z,58.81
2022-10-18T21:30:19.700Z,58.94
2022-10-18T21:33:22.663Z,59.03
2022-10-18T21:36:27.701Z,59.24
2022-10-18T21:39:30.232Z,59.27
2022-10-18T21:42:33.805Z,59.30
2022-10-18T21:45:36.480Z,59.38
2022-10-18T21:48:44.180Z,59.47
2022-10-18T21:51:46.915Z,59.29
2022-10-18T21:54:49.973Z,59.19
2022-10-18T21:57:52.620Z,58.96
2022-10-18T22:00:55.627Z,58.70
2022-10-18T22:04:00.168Z,58.59
2022-10-18T22:07:04.843Z,58.47
2022-10-18T22:10:07.953Z,58.52
2022-10-18T22:13:10.547Z,58.50
2022-10-18T22:16:15.108Z,58.47
2022-10-18T22:19:18.000Z,58.51
2022-10-18T22:22:20.758Z,58.54
2022-10-18T22:25:23.482Z,58.55
2022-10-18T22:28:26.270Z,58.57
2022-10-18T22:31:32.691Z,58.35
2022-10-18T22:34:35.406Z,58.35
2022-10-18T22:37:38.078Z,58.46
2022-10-18T22:40:40.790Z,58.52
2022-10-18T22:43:43.447Z,58.51
2022-10-18T22:46:46.277Z,58.38
2022-10-18T22:49:48.945Z,58.42
2022-10-18T22:52:53.937Z,58.50
2022-10-18T22:55:57.445Z,58.47
2022-10-18T22:59:00.258Z,58.38
2022-10-18T23:02:02.908Z,58.39
2022-10-18T23:05:05.830Z,58.52
2022-10-18T23:08:10.626Z,58.68
2022-10-18T23:11:13.794Z,58.71
2022-10-18T23:14:16.500Z,58.76
2022-10-18T23:17:19.171Z,58.71
2022-10-18T23:20:21.829Z,58.71
2022-10-18T23:23:24.598Z,58.69
2022-10-18T23:26:28.307Z,58.58
2022-10-18T23:29:31.088Z,58.70
2022-10-18T23:32:35.331Z,58.67
2022-10-18T23:35:38.308Z,58.56
2022-10-18T23:38:41.794Z,58.66
2022-10-18T23:41:44.656Z,58.60
2022-10-18T23:44:48.210Z,58.64
2022-10-18T23:47:50.883Z,58.38
2022-10-18T23:50:53.636Z,58.23
2022-10-18T23:53:56.295Z,58.38
2022-10-18T23:56:59.132Z,58.34
